Time;durP1;ratioP1;P1;durP2;ratioP2;P2;SDS_P1;SDS_P2;PMS_P1;PMS_P2;Temp;Humidity;BMP_temperature;BMP_pressure;BME280_temperature;BME280_humidity;BME280_pressure;Samples;Min_cycle;Max_cycle;Signal;HPM_P1;HPM_P2
2022/12/10 00:02:15;;;;;;;42.27;24.40;;;1.20;99.90;;;;;;4958560;28;20238;-92
2022/12/10 00:04:41;;;;;;;36.93;22.10;;;1.20;99.90;;;;;;4976908;28;20234;-90
2022/12/10 00:07:07;;;;;;;38.27;23.50;;;1.20;99.90;;;;;;4954482;28;20208;-92
2022/12/10 00:09:33;;;;;;;36.27;22.70;;;1.20;99.90;;;;;;4958950;28;20191;-92
2022/12/10 00:11:59;;;;;;;40.53;22.73;;;1.20;99.90;;;;;;4958987;28;20185;-92
2022/12/10 00:14:25;;;;;;;35.93;22.63;;;1.20;99.90;;;;;;4958881;28;20180;-92
2022/12/10 00:16:54;;;;;;;37.13;22.97;;;1.20;99.90;;;;;;4974819;28;20204;-92
2022/12/10 00:19:20;;;;;;;37.20;23.13;;;1.20;99.90;;;;;;4974391;28;20203;-93
2022/12/10 00:21:46;;;;;;;37.97;23.33;;;1.20;99.90;;;;;;4959323;28;20211;-92
2022/12/10 00:24:12;;;;;;;35.27;22.03;;;1.20;99.90;;;;;;4970594;28;20187;-92
2022/12/10 00:26:41;;;;;;;32.67;21.43;;;1.20;99.90;;;;;;4942796;28;20207;-92
2022/12/10 00:29:11;;;;;;;33.93;22.87;;;1.20;99.90;;;;;;4970172;28;20185;-92
2022/12/10 00:31:38;;;;;;;36.30;22.87;;;1.20;99.90;;;;;;4955199;28;20181;-92
2022/12/10 00:34:07;;;;;;;31.70;21.83;;;1.20;99.90;;;;;;4943356;28;20195;-92
2022/12/10 00:36:45;;;;;;;40.17;22.73;;;1.20;99.90;;;;;;4955962;28;20204;-92
2022/12/10 00:39:15;;;;;;;39.73;22.57;;;1.20;99.90;;;;;;4974709;28;20183;-92
2022/12/10 00:41:42;;;;;;;36.30;22.97;;;1.20;99.90;;;;;;4959200;28;20192;-92
2022/12/10 00:44:12;;;;;;;34.87;22.63;;;1.20;99.90;;;;;;4955716;29;20213;-92
2022/12/10 00:46:38;;;;;;;33.67;22.83;;;1.20;99.90;;;;;;4958615;28;20303;-92
2022/12/10 00:49:07;;;;;;;36.40;23.07;;;1.20;99.90;;;;;;4958661;28;20177;-92
2022/12/10 00:51:33;;;;;;;38.97;22.90;;;1.20;99.90;;;;;;4958683;28;20214;-92
2022/12/10 00:54:00;;;;;;;41.47;24.27;;;1.20;99.90;;;;;;4975015;28;20206;-93
2022/12/10 00:56:29;;;;;;;42.83;25.33;;;1.30;99.90;;;;;;4955937;28;20208;-93
2022/12/10 00:58:55;;;;;;;41.50;24.13;;;1.30;99.90;;;;;;4950090;28;20185;-93
2022/12/10 01:01:33;;;;;;;41.17;24.20;;;1.30;99.90;;;;;;4943903;29;20196;-93
2022/12/10 01:04:03;;;;;;;40.63;24.17;;;1.30;99.90;;;;;;4973354;28;20183;-93
2022/12/10 01:06:35;;;;;;;50.73;27.50;;;1.20;99.90;;;;;;4957536;28;20294;-92
2022/12/10 01:09:06;;;;;;;47.27;26.40;;;1.20;99.90;;;;;;4956693;28;20193;-92
2022/12/10 01:11:36;;;;;;;51.43;26.43;;;1.20;99.90;;;;;;4958267;28;20256;-92
2022/12/10 01:14:06;;;;;;;52.50;26.80;;;1.20;99.90;;;;;;4957930;28;20187;-92
2022/12/10 01:16:32;;;;;;;49.53;26.53;;;1.20;99.90;;;;;;4949301;29;20204;-92
2022/12/10 01:18:59;;;;;;;41.40;25.20;;;1.20;99.90;;;;;;4958088;28;20260;-93
2022/12/10 01:21:27;;;;;;;42.17;24.60;;;1.20;99.90;;;;;;4958085;28;20195;-92
2022/12/10 01:23:53;;;;;;;48.73;25.63;;;1.20;99.90;;;;;;4974517;28;20183;-93
2022/12/10 01:26:23;;;;;;;54.90;26.83;;;1.20;99.90;;;;;;4973764;28;20211;-93
2022/12/10 01:28:49;;;;;;;50.43;25.13;;;1.20;99.90;;;;;;4974535;28;20219;-92
2022/12/10 01:31:25;;;;;;;50.97;26.60;;;1.20;99.90;;;;;;4974579;28;20183;-93
2022/12/10 01:33:51;;;;;;;49.37;25.57;;;1.20;99.90;;;;;;4974237;28;20191;-92
2022/12/10 01:36:23;;;;;;;47.80;24.83;;;1.20;99.90;;;;;;4974721;28;20207;-93
2022/12/10 01:38:49;;;;;;;56.63;24.90;;;1.20;99.90;;;;;;4974029;28;20191;-92
2022/12/10 01:41:37;;;;;;;56.30;27.90;;;1.20;99.90;;;;;;4974295;28;20275;-93
2022/12/10 01:44:09;;;;;;;54.83;27.77;;;1.30;99.90;;;;;;4956359;28;20203;-93
2022/12/10 01:46:43;;;;;;;48.83;24.43;;;1.20;99.90;;;;;;4974256;28;20203;-92
2022/12/10 01:49:13;;;;;;;46.20;26.33;;;1.20;99.90;;;;;;4974345;28;20186;-93
2022/12/10 01:51:41;;;;;;;52.67;27.77;;;1.20;99.90;;;;;;4957921;28;20246;-93
2022/12/10 01:54:12;;;;;;;43.97;24.67;;;1.30;99.90;;;;;;4958200;28;20186;-92
2022/12/10 01:56:44;;;;;;;51.07;26.20;;;1.30;99.90;;;;;;4958103;28;20202;-92
2022/12/10 01:59:13;;;;;;;48.10;25.27;;;1.30;99.90;;;;;;4954982;29;20196;-92
2022/12/10 02:02:33;;;;;;;49.20;25.37;;;1.30;99.90;;;;;;4973632;28;20260;-92
2022/12/10 02:05:55;;;;;;;47.67;24.47;;;1.30;99.90;;;;;;4957786;28;20180;-92
2022/12/10 02:08:36;;;;;;;51.47;25.83;;;1.30;99.90;;;;;;4899385;29;20209;-92
2022/12/10 02:11:13;;;;;;;51.20;25.47;;;1.30;99.90;;;;;;4932871;29;20197;-92
2022/12/10 02:13:56;;;;;;;50.23;25.53;;;1.20;99.90;;;;;;4954628;29;20346;-92
2022/12/10 02:16:32;;;;;;;48.37;26.20;;;1.20;99.90;;;;;;4971656;28;20191;-92
2022/12/10 02:19:13;;;;;;;50.17;25.17;;;1.20;99.90;;;;;;4957999;28;20214;-93
2022/12/10 02:21:43;;;;;;;44.73;25.23;;;1.30;99.90;;;;;;4954421;29;20195;-92
2022/12/10 02:24:18;;;;;;;42.23;23.77;;;1.30;99.90;;;;;;4970642;28;20179;-93
2022/12/10 02:26:51;;;;;;;41.57;24.63;;;1.30;99.90;;;;;;4973570;28;20238;-93
2022/12/10 02:29:20;;;;;;;44.80;24.33;;;1.30;99.90;;;;;;4973425;28;20175;-92
2022/12/10 02:31:52;;;;;;;49.07;24.80;;;1.30;99.90;;;;;;4942737;29;20285;-92
2022/12/10 02:34:20;;;;;;;55.97;27.73;;;1.30;99.90;;;;;;4954768;29;20197;-93
2022/12/10 02:36:50;;;;;;;55.77;26.23;;;1.30;99.90;;;;;;4953874;28;20207;-92
2022/12/10 02:39:23;;;;;;;53.37;25.13;;;1.30;99.90;;;;;;4954088;29;20240;-93
2022/12/10 02:41:55;;;;;;;50.87;26.50;;;1.30;99.90;;;;;;4954449;29;20161;-92
2022/12/10 02:44:24;;;;;;;57.00;27.40;;;1.30;99.90;;;;;;4954338;29;20240;-92
2022/12/10 02:46:54;;;;;;;61.90;26.93;;;1.30;99.90;;;;;;4958438;28;20203;-92
2022/12/10 02:49:25;;;;;;;68.57;31.30;;;1.30;99.90;;;;;;4957549;28;20172;-92
2022/12/10 02:51:52;;;;;;;60.07;28.30;;;1.30;99.90;;;;;;4949880;29;20195;-93
2022/12/10 02:54:43;;;;;;;63.97;27.90;;;1.30;99.90;;;;;;4957179;28;20180;-93
2022/12/10 02:57:27;;;;;;;60.80;28.40;;;1.30;99.90;;;;;;4977582;28;20214;-92
2022/12/10 03:00:06;;;;;;;61.33;27.83;;;1.30;99.90;;;;;;4976967;28;20184;-93
2022/12/10 03:02:43;;;;;;;64.47;28.17;;;1.30;99.90;;;;;;4964676;28;20185;-92
2022/12/10 03:05:15;;;;;;;62.03;27.57;;;1.30;99.90;;;;;;4958277;29;20248;-92
2022/12/10 03:07:48;;;;;;;65.70;28.33;;;1.30;99.90;;;;;;4956914;28;20212;-92
2022/12/10 03:10:39;;;;;;;57.10;29.63;;;1.30;99.90;;;;;;4960422;28;20184;-92
2022/12/10 03:13:09;;;;;;;59.27;27.00;;;1.30;99.90;;;;;;4960677;28;20195;-93
2022/12/10 03:15:38;;;;;;;61.53;27.33;;;1.30;99.90;;;;;;4960758;28;20183;-92
2022/12/10 03:18:07;;;;;;;62.00;29.43;;;1.30;99.90;;;;;;4960380;28;20215;-93
2022/12/10 03:20:36;;;;;;;60.80;28.13;;;1.30;99.90;;;;;;4960316;28;20184;-93
2022/12/10 03:23:05;;;;;;;61.40;29.27;;;1.30;99.90;;;;;;4960389;28;20657;-92
2022/12/10 03:25:32;;;;;;;62.33;27.67;;;1.30;99.90;;;;;;4960348;28;20187;-92
2022/12/10 03:28:00;;;;;;;57.70;29.33;;;1.40;99.90;;;;;;4959979;28;20266;-92
2022/12/10 03:30:26;;;;;;;54.77;27.17;;;1.40;99.90;;;;;;4950668;29;20180;-92
2022/12/10 03:32:53;;;;;;;58.87;26.80;;;1.40;99.90;;;;;;4956986;29;20221;-92
2022/12/10 03:35:22;;;;;;;53.37;27.57;;;1.30;99.90;;;;;;4942792;28;20195;-92
2022/12/10 03:37:49;;;;;;;51.50;27.07;;;1.30;99.90;;;;;;4955337;28;20239;-92
2022/12/10 03:40:17;;;;;;;52.63;26.77;;;1.30;99.90;;;;;;4965364;28;20317;-92
2022/12/10 03:42:43;;;;;;;48.37;24.97;;;1.40;99.90;;;;;;4960352;28;20190;-92
2022/12/10 03:45:10;;;;;;;50.00;25.67;;;1.40;99.90;;;;;;4976450;28;20248;-92
2022/12/10 03:47:36;;;;;;;49.47;25.43;;;1.40;99.90;;;;;;4965767;28;20295;-93
2022/12/10 03:50:02;;;;;;;51.77;26.93;;;1.30;99.90;;;;;;4957751;28;20186;-92
2022/12/10 03:52:28;;;;;;;55.43;27.37;;;1.40;99.90;;;;;;4959914;28;20208;-92
2022/12/10 03:54:54;;;;;;;55.77;27.30;;;1.40;99.90;;;;;;4976137;28;20176;-92
2022/12/10 03:57:19;;;;;;;58.20;27.00;;;1.40;99.90;;;;;;4975797;28;20235;-92
2022/12/10 03:59:47;;;;;;;54.77;28.40;;;1.40;99.90;;;;;;4960434;28;20211;-92
2022/12/10 04:02:13;;;;;;;49.00;26.23;;;1.40;99.90;;;;;;4965785;28;20239;-93
2022/12/10 04:04:39;;;;;;;49.93;26.90;;;1.40;99.90;;;;;;4956288;29;20189;-92
2022/12/10 04:07:05;;;;;;;49.63;26.90;;;1.40;99.90;;;;;;4947401;28;20267;-92
2022/12/10 04:09:31;;;;;;;55.60;28.03;;;1.40;99.90;;;;;;4959934;28;20191;-92
2022/12/10 04:11:58;;;;;;;57.00;27.73;;;1.40;99.90;;;;;;4975892;28;20184;-93
2022/12/10 04:17:09;;;;;;;51.03;26.37;;;1.40;99.90;;;;;;4975588;28;20201;-92
2022/12/10 04:19:35;;;;;;;49.20;25.77;;;1.40;99.90;;;;;;4959455;28;20262;-92
2022/12/10 04:27:33;;;;;;;52.73;27.07;;;1.50;99.90;;;;;;4975563;28;20218;-93
2022/12/10 04:29:59;;;;;;;54.93;27.23;;;1.50;99.90;;;;;;4959204;28;20595;-92
2022/12/10 04:32:27;;;;;;;55.43;27.07;;;1.50;99.90;;;;;;4959241;28;20192;-92
2022/12/10 04:34:53;;;;;;;50.33;26.63;;;1.50;99.90;;;;;;4958963;28;20179;-92
2022/12/10 04:37:20;;;;;;;53.93;25.77;;;1.50;99.90;;;;;;4964571;28;20234;-92
2022/12/10 04:39:46;;;;;;;53.20;26.67;;;1.50;99.90;;;;;;4978140;28;20191;-92
2022/12/10 04:42:13;;;;;;;54.47;28.53;;;1.50;99.90;;;;;;4959508;28;20195;-92
2022/12/10 04:44:38;;;;;;;50.97;25.77;;;1.50;99.90;;;;;;4958828;28;20218;-93
2022/12/10 04:47:13;;;;;;;50.77;25.47;;;1.50;99.90;;;;;;4962077;28;20208;-92
2022/12/10 04:49:39;;;;;;;51.83;26.67;;;1.50;99.90;;;;;;4968010;28;20180;-93
2022/12/10 04:52:44;;;;;;;54.33;25.90;;;1.50;99.90;;;;;;4975000;28;20193;-92
2022/12/10 04:55:10;;;;;;;56.43;26.63;;;1.50;99.90;;;;;;4959172;28;20173;-92
2022/12/10 04:57:36;;;;;;;61.87;26.30;;;1.50;99.90;;;;;;4974819;28;20261;-92
2022/12/10 05:00:03;;;;;;;52.83;26.67;;;1.50;99.90;;;;;;4958837;28;20195;-92
2022/12/10 05:02:48;;;;;;;45.77;24.80;;;1.50;99.90;;;;;;4958334;28;20184;-92
2022/12/10 05:08:25;;;;;;;50.90;25.70;;;1.50;99.90;;;;;;4955173;29;20309;-92
2022/12/10 05:10:51;;;;;;;52.53;26.13;;;1.50;99.90;;;;;;4957971;28;20355;-92
2022/12/10 05:13:17;;;;;;;49.23;27.50;;;1.50;99.90;;;;;;4974687;28;20238;-92
2022/12/10 05:15:42;;;;;;;48.17;25.23;;;1.50;99.90;;;;;;4974668;28;20260;-92
2022/12/10 05:18:08;;;;;;;54.57;27.23;;;1.50;99.90;;;;;;4958235;28;20271;-93
2022/12/10 05:23:57;;;;;;;56.83;26.90;;;1.50;99.90;;;;;;4974479;28;20207;-92
2022/12/10 05:26:24;;;;;;;58.57;28.93;;;1.50;99.90;;;;;;4974283;28;20226;-92
2022/12/10 05:28:53;;;;;;;51.33;27.33;;;1.50;99.90;;;;;;4974297;28;20220;-92
2022/12/10 05:31:28;;;;;;;45.80;26.23;;;1.50;99.90;;;;;;4955012;29;20184;-93
2022/12/10 05:33:55;;;;;;;48.37;27.63;;;1.50;99.90;;;;;;4970849;28;20202;-93
2022/12/10 05:36:24;;;;;;;49.77;27.17;;;1.50;99.90;;;;;;4955058;29;20283;-92
2022/12/10 05:38:51;;;;;;;47.77;25.30;;;1.50;99.90;;;;;;4958082;28;20188;-92
2022/12/10 05:41:25;;;;;;;41.30;24.13;;;1.50;99.90;;;;;;4977230;28;20200;-92
2022/12/10 05:43:54;;;;;;;48.10;24.80;;;1.50;99.90;;;;;;4975162;28;20194;-92
2022/12/10 05:46:33;;;;;;;47.10;24.60;;;1.50;99.90;;;;;;4959701;28;20206;-92
2022/12/10 05:49:01;;;;;;;45.43;25.70;;;1.50;99.90;;;;;;4948657;28;20214;-92
2022/12/10 05:51:30;;;;;;;48.37;26.40;;;1.50;99.90;;;;;;4944155;29;20231;-93
2022/12/10 05:54:08;;;;;;;43.53;25.27;;;1.50;99.90;;;;;;4964540;28;20180;-92
2022/12/10 05:56:36;;;;;;;42.60;23.90;;;1.50;99.90;;;;;;4975389;28;20243;-92
2022/12/10 05:59:03;;;;;;;44.43;25.30;;;1.50;99.90;;;;;;4969775;28;20184;-92
2022/12/10 06:01:35;;;;;;;38.97;24.07;;;1.50;99.90;;;;;;4951251;28;20177;-93
2022/12/10 06:04:27;;;;;;;40.13;23.23;;;1.50;99.90;;;;;;4974430;28;20211;-93
2022/12/10 06:06:54;;;;;;;42.00;23.80;;;1.50;99.90;;;;;;4973863;28;20226;-93
2022/12/10 06:09:24;;;;;;;44.70;24.93;;;1.50;99.90;;;;;;4960654;28;20230;-92
2022/12/10 06:11:56;;;;;;;44.50;25.57;;;1.50;99.90;;;;;;4957808;28;20173;-93
2022/12/10 06:14:36;;;;;;;44.43;24.43;;;1.50;99.90;;;;;;4957691;28;20184;-93
2022/12/10 06:17:02;;;;;;;42.70;25.03;;;1.50;99.90;;;;;;4974210;28;20247;-92
2022/12/10 06:19:30;;;;;;;40.87;24.40;;;1.50;99.90;;;;;;4969677;28;20177;-92
2022/12/10 06:21:58;;;;;;;41.57;24.07;;;1.50;99.90;;;;;;4973547;28;20191;-92
2022/12/10 06:24:24;;;;;;;37.10;21.90;;;1.50;99.90;;;;;;4957070;28;20184;-89
2022/12/10 06:26:50;;;;;;;45.27;26.20;;;1.60;99.90;;;;;;4956744;28;20200;-92
2022/12/10 06:29:17;;;;;;;40.90;24.30;;;1.50;99.90;;;;;;4959140;28;20182;-92
2022/12/10 06:31:43;;;;;;;41.87;23.80;;;1.50;99.90;;;;;;4956793;28;20188;-92
2022/12/10 06:34:09;;;;;;;42.63;24.03;;;1.50;99.90;;;;;;4952776;29;20196;-92
2022/12/10 06:36:35;;;;;;;37.23;23.00;;;1.50;99.90;;;;;;4956743;28;20692;-92
2022/12/10 06:39:01;;;;;;;41.53;24.10;;;1.50;99.90;;;;;;4955359;28;20276;-92
2022/12/10 06:41:29;;;;;;;39.97;23.57;;;1.50;99.90;;;;;;4972622;28;20194;-91
2022/12/10 06:43:58;;;;;;;41.17;23.23;;;1.50;99.90;;;;;;4961594;28;20644;-93
2022/12/10 06:46:27;;;;;;;40.00;23.13;;;1.50;99.90;;;;;;4961846;28;20203;-92
2022/12/10 06:48:53;;;;;;;41.40;24.30;;;1.50;99.90;;;;;;4961640;28;20694;-93
2022/12/10 06:51:19;;;;;;;44.37;25.27;;;1.50;99.90;;;;;;4957894;28;20192;-92
2022/12/10 06:53:46;;;;;;;41.43;23.47;;;1.50;99.90;;;;;;4977564;28;20191;-93
2022/12/10 06:56:15;;;;;;;41.33;23.70;;;1.50;99.90;;;;;;4961165;28;20180;-92
2022/12/10 06:58:43;;;;;;;43.07;25.47;;;1.40;99.90;;;;;;4972648;28;20184;-91
2022/12/10 07:01:58;;;;;;;38.87;24.07;;;1.40;99.90;;;;;;4965319;28;20234;-92
2022/12/10 07:04:25;;;;;;;44.07;25.13;;;1.40;99.90;;;;;;4941495;29;20188;-92
2022/12/10 07:06:51;;;;;;;43.30;24.80;;;1.40;99.90;;;;;;4968805;28;20214;-92
2022/12/10 07:09:37;;;;;;;43.70;25.57;;;1.30;99.90;;;;;;4980695;28;20183;-92
2022/12/10 07:14:38;;;;;;;45.03;26.53;;;1.20;99.90;;;;;;4978249;28;20257;-32
2022/12/10 07:17:05;;;;;;;50.90;28.00;;;1.20;99.90;;;;;;4996434;28;20187;-32
2022/12/10 07:19:30;;;;;;;49.70;27.30;;;1.20;99.90;;;;;;4976927;28;20193;-33
2022/12/10 07:21:56;;;;;;;45.73;28.03;;;1.10;99.90;;;;;;4991362;28;20200;-35
2022/12/10 07:26:57;;;;;;;47.40;28.93;;;1.10;99.90;;;;;;4990171;28;20209;-34
2022/12/10 07:29:22;;;;;;;53.80;29.57;;;1.10;99.90;;;;;;4958774;28;20186;-34
2022/12/10 07:31:49;;;;;;;51.20;29.83;;;1.10;99.90;;;;;;4974553;28;20276;-34
2022/12/10 07:34:15;;;;;;;58.40;31.80;;;1.10;99.90;;;;;;4970509;28;20184;-35
2022/12/10 07:36:41;;;;;;;54.07;31.50;;;1.10;99.90;;;;;;4961841;28;20453;-34
2022/12/10 07:39:09;;;;;;;58.07;34.07;;;1.10;99.90;;;;;;4957513;28;20178;-33
2022/12/10 07:41:37;;;;;;;54.90;31.20;;;1.10;99.90;;;;;;4957366;28;20242;-33
2022/12/10 07:44:06;;;;;;;49.47;29.03;;;1.10;99.90;;;;;;4957488;28;20186;-35
2022/12/10 07:46:32;;;;;;;48.37;29.63;;;1.10;99.90;;;;;;4946702;28;20206;-33
2022/12/10 07:49:02;;;;;;;52.40;29.63;;;1.00;99.90;;;;;;4977774;28;20238;-34
2022/12/10 07:51:29;;;;;;;54.30;30.27;;;1.00;99.90;;;;;;4978913;28;20187;-33
2022/12/10 07:53:55;;;;;;;48.57;27.43;;;1.00;99.90;;;;;;4977395;28;20281;-34
2022/12/10 07:56:22;;;;;;;45.70;26.63;;;1.00;99.90;;;;;;4976975;28;20227;-34
2022/12/10 07:58:49;;;;;;;48.00;28.30;;;1.00;99.90;;;;;;4960684;28;20192;-34
2022/12/10 08:01:17;;;;;;;52.93;29.43;;;1.00;99.90;;;;;;4960884;28;20191;-34
2022/12/10 08:03:43;;;;;;;52.57;28.53;;;1.00;99.90;;;;;;4976442;28;20237;-34
2022/12/10 08:06:15;;;;;;;49.03;29.13;;;1.00;99.90;;;;;;4960603;28;20207;-34
2022/12/10 08:08:41;;;;;;;50.77;28.53;;;1.00;99.90;;;;;;4966383;28;20214;-34
2022/12/10 08:11:08;;;;;;;45.97;28.57;;;1.00;99.90;;;;;;4980160;28;20189;-34
2022/12/10 08:13:35;;;;;;;42.50;25.80;;;1.00;99.90;;;;;;4950776;28;20263;-34
2022/12/10 08:16:05;;;;;;;49.33;28.13;;;1.00;99.90;;;;;;4967128;28;20261;-35
2022/12/10 08:18:34;;;;;;;48.80;28.03;;;1.00;99.90;;;;;;4956699;28;20189;-33
2022/12/10 08:21:08;;;;;;;53.27;29.83;;;1.00;99.90;;;;;;4967573;28;20192;-34
2022/12/10 08:23:34;;;;;;;50.37;28.33;;;1.00;99.90;;;;;;4957075;28;20199;-33
2022/12/10 08:26:06;;;;;;;51.03;29.60;;;0.90;99.90;;;;;;4963228;28;20223;-34
2022/12/10 08:28:32;;;;;;;51.77;29.17;;;0.90;99.90;;;;;;4950286;28;20213;-34
2022/12/10 08:30:58;;;;;;;42.03;26.30;;;0.90;99.90;;;;;;4968453;28;20183;-33
2022/12/10 08:33:24;;;;;;;50.13;29.27;;;0.90;99.90;;;;;;4951351;28;20183;-34
2022/12/10 08:35:50;;;;;;;50.87;29.30;;;0.90;99.90;;;;;;4940739;28;20207;-33
2022/12/10 08:38:16;;;;;;;54.53;29.50;;;0.90;99.90;;;;;;4975836;28;20191;-33
2022/12/10 08:40:42;;;;;;;45.87;27.40;;;0.90;99.90;;;;;;4946351;28;20201;-33
2022/12/10 08:43:08;;;;;;;46.87;27.47;;;1.00;99.90;;;;;;4970545;28;20197;-33
2022/12/10 08:45:34;;;;;;;47.43;27.70;;;1.00;99.90;;;;;;4944400;28;20203;-44
2022/12/10 08:48:01;;;;;;;43.77;26.87;;;1.00;99.90;;;;;;4946838;28;20258;-45
2022/12/10 08:50:28;;;;;;;48.00;28.23;;;1.00;99.90;;;;;;4986853;28;20215;-45
2022/12/10 08:52:54;;;;;;;46.23;26.03;;;1.10;99.90;;;;;;4959726;28;20247;-45
2022/12/10 08:55:20;;;;;;;45.77;26.63;;;1.00;99.90;;;;;;4953067;28;20241;-44
2022/12/10 08:57:46;;;;;;;42.73;25.47;;;1.10;99.90;;;;;;4948647;28;20194;-44
2022/12/10 09:00:13;;;;;;;43.87;26.87;;;1.10;99.90;;;;;;4958832;28;20190;-44
2022/12/10 09:02:39;;;;;;;47.63;27.97;;;1.10;99.90;;;;;;4953678;28;20185;-44
2022/12/10 09:05:07;;;;;;;43.80;26.70;;;1.00;99.90;;;;;;4973592;28;20201;-44
2022/12/10 09:07:33;;;;;;;47.17;27.20;;;1.10;99.90;;;;;;4940485;28;20667;-44
2022/12/10 09:09:59;;;;;;;46.57;28.20;;;1.10;99.90;;;;;;4957474;28;20267;-44
2022/12/10 09:12:25;;;;;;;47.30;28.07;;;1.10;99.90;;;;;;4957331;28;20257;-44
2022/12/10 09:14:51;;;;;;;41.53;25.10;;;1.10;99.90;;;;;;4959438;28;20207;-44
2022/12/10 09:17:17;;;;;;;43.50;26.07;;;1.10;99.90;;;;;;4973742;28;20243;-44
2022/12/10 09:19:43;;;;;;;40.63;24.50;;;1.20;99.90;;;;;;4959343;28;20241;-44
2022/12/10 09:22:08;;;;;;;41.70;25.90;;;1.20;99.90;;;;;;4949133;28;20180;-44
2022/12/10 09:24:34;;;;;;;41.33;23.73;;;1.20;99.90;;;;;;4955808;28;20276;-44
2022/12/10 09:27:01;;;;;;;42.57;25.60;;;1.20;99.90;;;;;;4974954;28;20187;-44
2022/12/10 09:29:28;;;;;;;41.57;25.07;;;1.20;99.90;;;;;;4947199;28;20180;-44
2022/12/10 09:31:54;;;;;;;37.07;23.00;;;1.30;99.90;;;;;;4965646;28;20180;-44
2022/12/10 09:34:21;;;;;;;39.73;23.33;;;1.30;99.90;;;;;;4962989;28;20187;-44
2022/12/10 09:36:47;;;;;;;40.50;24.53;;;1.30;99.90;;;;;;4971944;28;20186;-44
2022/12/10 09:39:14;;;;;;;41.80;25.43;;;1.40;99.90;;;;;;4949128;28;20194;-44
2022/12/10 09:41:51;;;;;;;37.53;23.40;;;1.40;99.90;;;;;;4964680;28;20194;-44
2022/12/10 09:44:32;;;;;;;37.07;23.80;;;1.40;99.90;;;;;;4963264;28;20224;-44
2022/12/10 09:47:00;;;;;;;39.33;23.40;;;1.40;99.90;;;;;;4978533;28;20210;-44
2022/12/10 09:49:38;;;;;;;39.57;24.33;;;1.40;99.90;;;;;;4981254;28;20660;-44
2022/12/10 09:52:11;;;;;;;41.33;24.97;;;1.40;99.90;;;;;;4979597;28;20282;-44
2022/12/10 09:54:47;;;;;;;40.57;24.23;;;1.40;99.90;;;;;;4948718;28;20206;-44
2022/12/10 09:57:30;;;;;;;39.87;24.73;;;1.40;99.90;;;;;;4963445;28;20231;-44
2022/12/10 10:00:01;;;;;;;39.47;22.33;;;1.40;99.90;;;;;;4969293;28;20272;-44
2022/12/10 10:02:38;;;;;;;40.83;24.80;;;1.40;99.90;;;;;;4965307;28;20188;-44
2022/12/10 10:05:07;;;;;;;40.13;24.20;;;1.40;99.90;;;;;;4965737;28;20200;-44
2022/12/10 10:07:47;;;;;;;39.30;25.27;;;1.40;99.90;;;;;;4947848;28;20215;-44
2022/12/10 10:10:26;;;;;;;38.50;23.17;;;1.40;99.90;;;;;;4958097;28;20227;-44
2022/12/10 10:12:55;;;;;;;45.70;26.77;;;1.40;99.90;;;;;;4956249;28;20234;-44
2022/12/10 10:15:32;;;;;;;41.93;24.77;;;1.40;99.90;;;;;;4940732;28;20197;-44
2022/12/10 10:18:04;;;;;;;43.00;25.70;;;1.40;99.90;;;;;;4948922;28;20198;-44
2022/12/10 10:20:30;;;;;;;40.43;24.63;;;1.50;99.90;;;;;;4948292;28;20183;-44
2022/12/10 10:22:58;;;;;;;39.00;25.80;;;1.50;99.90;;;;;;4959721;28;20182;-44
2022/12/10 10:25:25;;;;;;;43.60;26.83;;;1.60;99.90;;;;;;4944106;28;20235;-44
2022/12/10 10:27:51;;;;;;;37.50;24.10;;;1.70;99.90;;;;;;4951154;28;20233;-44
2022/12/10 10:30:20;;;;;;;39.73;24.67;;;1.70;99.90;;;;;;4974939;28;20208;-44
2022/12/10 10:32:49;;;;;;;36.70;24.57;;;1.70;99.90;;;;;;4980314;28;20186;-44
2022/12/10 10:35:41;;;;;;;39.13;22.73;;;1.70;99.90;;;;;;4952615;28;20188;-44
2022/12/10 10:38:23;;;;;;;35.47;22.00;;;1.70;99.90;;;;;;4975807;28;20200;-44
2022/12/10 10:40:54;;;;;;;40.57;23.60;;;1.80;99.90;;;;;;4956671;28;20207;-43
2022/12/10 10:43:23;;;;;;;39.40;24.67;;;1.80;99.90;;;;;;4985231;28;20213;-44
2022/12/10 10:46:00;;;;;;;38.73;23.17;;;1.70;99.90;;;;;;4978667;28;20242;-44
2022/12/10 10:48:28;;;;;;;35.07;22.40;;;1.80;99.90;;;;;;4957885;28;20207;-44
2022/12/10 10:51:04;;;;;;;35.17;21.97;;;1.80;99.90;;;;;;4983482;28;20202;-44
2022/12/10 10:53:43;;;;;;;35.50;23.07;;;1.70;99.90;;;;;;4963444;28;20185;-44
2022/12/10 10:56:22;;;;;;;33.60;20.80;;;1.80;99.90;;;;;;4980250;28;20227;-44
2022/12/10 10:59:06;;;;;;;40.93;26.70;;;1.80;99.90;;;;;;4962342;28;20194;-44
2022/12/10 11:01:56;;;;;;;35.93;23.13;;;1.70;99.90;;;;;;4956731;28;20259;-44
2022/12/10 11:04:45;;;;;;;33.13;21.63;;;1.70;99.90;;;;;;4987970;28;20204;-44
2022/12/10 11:07:36;;;;;;;36.90;22.07;;;1.70;99.90;;;;;;4983428;28;20222;-44
2022/12/10 11:10:15;;;;;;;33.63;21.30;;;1.70;99.90;;;;;;4964892;28;20199;-44
2022/12/10 11:12:41;;;;;;;31.83;20.13;;;1.70;99.90;;;;;;4967337;28;20198;-44
2022/12/10 11:15:22;;;;;;;35.37;22.43;;;1.60;99.90;;;;;;4950606;28;20211;-44
2022/12/10 11:17:50;;;;;;;35.27;21.37;;;1.60;99.90;;;;;;4959076;28;20184;-43
2022/12/10 11:20:34;;;;;;;37.30;22.97;;;1.60;99.90;;;;;;4960570;28;20270;-44
2022/12/10 11:23:02;;;;;;;35.17;21.70;;;1.60;99.90;;;;;;4959506;28;20655;-44
2022/12/10 11:25:53;;;;;;;37.73;23.07;;;1.60;99.90;;;;;;4977322;28;20278;-44
2022/12/10 11:28:49;;;;;;;33.43;21.53;;;1.50;99.90;;;;;;4987552;28;20197;-44
2022/12/10 11:31:55;;;;;;;35.40;22.07;;;1.50;99.90;;;;;;4975724;28;20176;-44
2022/12/10 11:34:21;;;;;;;39.80;22.30;;;1.50;99.90;;;;;;4946499;28;20189;-44
2022/12/10 11:36:52;;;;;;;37.30;22.27;;;1.50;99.90;;;;;;4976781;28;20187;-44
2022/12/10 11:39:30;;;;;;;35.63;21.60;;;1.60;99.90;;;;;;4960831;28;20178;-44
2022/12/10 11:41:56;;;;;;;32.30;20.37;;;1.60;99.90;;;;;;4960740;28;20187;-44
2022/12/10 11:44:30;;;;;;;35.33;21.60;;;1.60;99.90;;;;;;4956654;28;20214;-44
2022/12/10 11:47:31;;;;;;;32.50;20.50;;;1.60;99.90;;;;;;4966775;28;20210;-44
2022/12/10 11:50:09;;;;;;;30.77;19.30;;;1.60;99.90;;;;;;4935839;29;20278;-44
2022/12/10 11:52:53;;;;;;;33.03;21.10;;;1.60;99.90;;;;;;4955575;28;20183;-44
2022/12/10 11:55:52;;;;;;;35.73;21.50;;;1.60;99.90;;;;;;4981936;28;20202;-44
2022/12/10 11:58:47;;;;;;;31.90;20.50;;;1.60;99.90;;;;;;4965459;28;20211;-44
2022/12/10 12:01:26;;;;;;;30.70;19.83;;;1.60;99.90;;;;;;4980817;28;20195;-44
2022/12/10 12:04:19;;;;;;;32.83;20.50;;;1.70;99.90;;;;;;4967600;28;20182;-44
2022/12/10 12:07:14;;;;;;;31.30;18.07;;;1.70;99.90;;;;;;4965603;28;20188;-44
2022/12/10 12:09:55;;;;;;;27.00;17.80;;;1.80;99.90;;;;;;4965639;28;20190;-44
2022/12/10 12:12:41;;;;;;;27.17;17.50;;;1.70;99.90;;;;;;4981683;28;20170;-44
2022/12/10 12:15:19;;;;;;;25.57;17.07;;;1.60;99.90;;;;;;4952938;28;20210;-44
2022/12/10 12:17:53;;;;;;;30.10;18.43;;;1.60;99.90;;;;;;4954478;28;20254;-44
2022/12/10 12:20:29;;;;;;;27.63;17.87;;;1.60;99.90;;;;;;4951594;28;20230;-44
2022/12/10 12:23:22;;;;;;;27.57;17.43;;;1.60;99.90;;;;;;4971756;28;20190;-44
2022/12/10 12:25:53;;;;;;;25.67;16.70;;;1.60;99.90;;;;;;4958367;28;20227;-44
2022/12/10 12:28:31;;;;;;;26.03;17.00;;;1.70;99.90;;;;;;4976260;28;20207;-44
2022/12/10 12:31:11;;;;;;;28.07;17.10;;;1.70;99.90;;;;;;4975744;28;20650;-44
2022/12/10 12:33:56;;;;;;;24.37;16.07;;;1.70;99.90;;;;;;4958981;28;20194;-44
2022/12/10 12:36:28;;;;;;;28.97;17.93;;;1.70;99.90;;;;;;4974086;28;20212;-44
2022/12/10 12:39:15;;;;;;;29.80;17.43;;;1.70;99.90;;;;;;4984297;28;20228;-44
2022/12/10 12:42:01;;;;;;;28.97;18.13;;;1.80;99.90;;;;;;4964890;28;20191;-44
2022/12/10 12:44:32;;;;;;;24.50;15.97;;;1.80;99.90;;;;;;4986806;28;20182;-46
2022/12/10 12:47:10;;;;;;;24.40;16.27;;;1.80;99.90;;;;;;4954329;28;20184;-45
2022/12/10 12:49:39;;;;;;;26.27;17.07;;;1.80;99.90;;;;;;4968896;28;20208;-45
2022/12/10 12:52:33;;;;;;;25.83;17.03;;;1.80;99.90;;;;;;4956047;28;20222;-46
2022/12/10 12:55:21;;;;;;;25.37;16.33;;;1.80;99.90;;;;;;4974945;28;20230;-45
2022/12/10 12:57:53;;;;;;;19.33;13.43;;;1.90;99.90;;;;;;4966774;28;20211;-46
2022/12/10 13:00:22;;;;;;;23.37;16.07;;;1.80;99.90;;;;;;4949308;28;20188;-45
2022/12/10 13:03:05;;;;;;;22.83;14.47;;;1.80;99.90;;;;;;4962445;28;20210;-46
2022/12/10 13:05:36;;;;;;;25.87;15.20;;;1.80;99.90;;;;;;4946198;28;20203;-45
2022/12/10 13:08:20;;;;;;;23.67;15.47;;;1.80;99.90;;;;;;4963225;28;20218;-43
2022/12/10 13:10:57;;;;;;;25.23;15.77;;;1.80;99.90;;;;;;4982207;28;20184;-44
2022/12/10 13:13:32;;;;;;;23.90;16.17;;;1.80;99.90;;;;;;4966079;28;20242;-46
2022/12/10 13:16:36;;;;;;;26.00;17.00;;;1.80;99.90;;;;;;4968635;28;20241;-45
2022/12/10 13:19:20;;;;;;;23.93;14.97;;;1.90;99.90;;;;;;4983594;28;20187;-45
2022/12/10 13:22:08;;;;;;;24.73;16.23;;;2.00;99.90;;;;;;4968337;28;20192;-45